ドバイ の空港の天気 - METARとTAF

ドバイ国際空港 ( OMDB / DXB ) - アラブ首長国連邦 ドバイ
飛行場実況気象(Metar)
観測時間04/21 21:00 GST (04/21 17:00 UTC)
風向・風速東 3m/s
視程10km以上
天気現象
なし
気温33℃
湿度30%
気圧1005hPa
METAROMDB 211700Z 08006KT CAVOK 33/13 Q1005 NOSIG
過去の天気等 Google飛行場航空写真 Wunderground天気予報

過去48時間のMETAR

飛行場予報(TAF)
発表時間: 4/21 15:02 GST (4/21 11:02 UTC)
予報対象時間: 21日16時 GST ~ 22日22時 GST
風向・風速北西 8m/s
視程10km以上
なし
21日19時 GST ~ 21日21時 GST に徐々に
風向・風速東 4m/s
22日7時 GST ~ 22日9時 GST に徐々に
風向・風速南 5m/s
22日13時 GST ~ 22日15時 GST に徐々に
風向・風速西北西 8m/s
22日19時 GST ~ 22日21時 GST に徐々に
風向・風速東 4m/s
TAF OMDB 211102Z 2112/2218 32015KT CAVOK
BECMG 2115/2117 08008KT
BECMG 2203/2205 18010KT
BECMG 2209/2211 30015KT
BECMG 2215/2217 09007KT